Hassler — WTEK — position and weather

sailwx.info

Track history (hours):
 
Tides and Currents Weather Stations Pressure Air Temp Water Temp Dewpoint Dewpoint Depression Visibility Wind Speed Wind Dir Waves Ship Positions

Oceanographic research ship Hassler (USA)

Last reported at 2016-Sep-26 02:46 UTC. Time now 2016-Sep-26 03:42 UTC.
Position N 33°18' W 077°30'.

Length 37 m; draft 3.8 m.

Type: . MMSI: 369970091.

Wind from 040 at 25 knots

Barometer 1016.5 mb
Air temperature 25.8 ° C

Date/timePositionNaut miles runAvg speedWind from/ knotsBaromVisibWave heightAir tempDewpointWater temp
2016-Sep-26 02:46N 33°18' W 077°30'8 7.8 040 / 251016.5 25.8
2016-Sep-26 01:46N 33°12' W 077°24'6 6.0 040 / 201016.4 26.0
2016-Sep-26 00:46N 33°18' W 077°24'5 6.5 030 / 251016.5 25.9
2016-Sep-26 00:00N 33°18' W 077°18'0 0.0 060 / 161018.810.8 1.026.021.4-28.1
2016-Sep-25 22:46N 33°18' W 077°18'5 5.1 020 / 241015.0 26.2
2016-Sep-25 21:47N 33°18' W 077°24'8 7.8 020 / 211014.9 26.6
2016-Sep-25 20:47N 33°24' W 077°30'0 0.0 020 / 251014.6 26.4
2016-Sep-25 19:47N 33°24' W 077°30'0 0.0 030 / 231014.8 26.8
2016-Sep-25 18:47N 33°24' W 077°30'0 0.0 050 / 131015.1 26.8
2016-Sep-25 17:47N 33°24' W 077°30'0 0.0 050 / 161015.5 26.7
2016-Sep-25 16:47N 33°24' W 077°30'0 0.0 050 / 141016.0 27.0
2016-Sep-25 15:47N 33°24' W 077°30'6 6.0 030 / 201016.3 27.2
2016-Sep-25 14:47N 33°18' W 077°30'0 0.0 030 / 171016.3 27.2
2016-Sep-25 13:47N 33°18' W 077°30'1010.0 040 / 171015.8 27.3
2016-Sep-25 12:47N 33°18' W 077°18'0 0.0 040 / 181015.6 27.5
2016-Sep-25 12:00N 33°18' W 077°18'523.1 070 / 101018.010.8 0.527.022.8-28.0
2016-Sep-25 11:47N 33°18' W 077°24'8 8.0 050 / 121015.1 27.4
2016-Sep-25 10:48N 33°12' W 077°18'0 0.0 010 / 161014.5 27.3
2016-Sep-25 09:48N 33°12' W 077°18'5 5.0 070 / 131014.5 27.8
2016-Sep-25 08:48N 33°12' W 077°24'5 5.0 050 / 131013.9 27.5
2016-Sep-25 07:48N 33°12' W 077°18'6 6.0 030 / 141013.4 27.4
2016-Sep-25 06:48N 33°18' W 077°18'6 6.0 060 / 131013.9 27.5
2016-Sep-25 05:48N 33°12' W 077°18'5 5.0 070 / 121014.2 27.2
2016-Sep-25 04:48N 33°12' W 077°24'8 7.8 050 / 121014.2 26.9
2016-Sep-25 03:48N 33°18' W 077°18'0 0.0 010 / 131014.4 27.0
2016-Sep-25 02:49N 33°18' W 077°18'8 7.8 060 / 91014.6 26.9
2016-Sep-25 01:49N 33°12' W 077°24'8 7.8 060 / 121014.6 27.2
2016-Sep-25 00:49N 33°18' W 077°18'6 7.3 350 / 161014.0 26.8
2016-Sep-25 00:00N 33°12' W 077°18'8 6.6 050 / 121016.510.8 0.526.022.5-28.1
2016-Sep-24 22:49N 33°18' W 077°24'5 5.0 340 / 161013.2 27.0
2016-Sep-24 21:49N 33°18' W 077°18'8 7.8 030 / 91013.1 27.3
2016-Sep-24 20:49N 33°12' W 077°24'8 7.8 340 / 161012.9 27.0
2016-Sep-24 19:49N 33°18' W 077°18'8 8.0 340 / 151012.9 27.1
2016-Sep-24 18:50N 33°12' W 077°24'8 7.8 040 / 91013.3 27.0
2016-Sep-24 17:50N 33°18' W 077°18'8 7.8 340 / 181013.7 26.9
2016-Sep-24 16:50N 33°12' W 077°24'8 7.8 020 / 121014.3 26.8
2016-Sep-24 15:50N 33°18' W 077°18'8 7.8 340 / 171014.3 27.0
2016-Sep-24 14:50N 33°12' W 077°24'6 6.0 040 / 111014.3 26.8
2016-Sep-24 13:50N 33°18' W 077°24'0 0.0 350 / 181013.9 26.2
2016-Sep-24 12:50N 33°18' W 077°24'1012.0 020 / 61013.9 26.8
2016-Sep-24 12:00N 33°18' W 077°12'530.1 360 / 71016.510.8 27.024.3-28.5
2016-Sep-24 11:50N 33°18' W 077°18'8 7.8 350 / 41013.3 27.0
2016-Sep-24 10:50N 33°12' W 077°24'6 6.0 360 / 51012.8 26.5
2016-Sep-24 09:50N 33°18' W 077°24'0 0.0 320 / 101012.6 26.5
2016-Sep-24 08:51N 33°18' W 077°24'5 5.0 050 / 41012.4 26.3
2016-Sep-24 07:51N 33°18' W 077°18'1211.7 310 / 91012.0 26.3
2016-Sep-24 06:51N 33°12' W 077°30'1211.7 270 / 71012.4 26.3
2016-Sep-24 05:51N 33°18' W 077°18'5 5.0 220 / 111012.3 25.4
2016-Sep-24 04:51N 33°18' W 077°24'0 0.0 310 / 121012.9 25.6
2016-Sep-24 03:51N 33°18' W 077°24'0 0.0 280 / 41012.9 26.6
2016-Sep-24 02:51N 33°18' W 077°24'0 0.0 240 / 31012.9 25.7
2016-Sep-24 01:51N 33°18' W 077°24'5 4.9 170 / 91012.3 26.8
2016-Sep-24 00:50N 33°18' W 077°18'0 0.0 280 / 61012.1 26.7
2016-Sep-24 00:00N 33°18' W 077°18'0 0.0 240 / 41015.010.8 26.823.6-28.8
2016-Sep-23 22:51N 33°18' W 077°18'5 5.0 170 / 111011.7 26.8
2016-Sep-23 21:51N 33°18' W 077°24'0 0.0 260 / 51011.7 27.0
2016-Sep-23 20:51N 33°18' W 077°24'0 0.0 170 / 101011.4 27.1
2016-Sep-23 19:51N 33°18' W 077°24'0 0.0 210 / 71011.1 27.1
2016-Sep-23 18:51N 33°18' W 077°24'0 0.0 160 / 111011.4 27.0
2016-Sep-23 17:51N 33°18' W 077°24'5 5.0 180 / 71012.3 27.1
2016-Sep-23 16:51N 33°18' W 077°30'1010.0 150 / 131012.8 26.9
2016-Sep-23 15:51N 33°18' W 077°18'1010.0 180 / 71013.1 27.1
2016-Sep-23 14:51N 33°18' W 077°30'1010.0 150 / 121013.3 26.8
2016-Sep-23 13:51N 33°18' W 077°18'5 5.1 120 / 51013.6 27.2
2016-Sep-23 12:52N 33°18' W 077°24'5 5.8 190 / 31013.1 27.4
2016-Sep-23 12:00N 33°18' W 077°18'537.6 210 / 21016.010.8 0.526.023.9-27.6
2016-Sep-23 11:52N 33°18' W 077°24'0 0.0 150 / 101013.0 27.2
2016-Sep-23 10:52N 33°18' W 077°24'0 0.0 180 / 21012.5 26.9
2016-Sep-23 09:52N 33°18' W 077°24'0 0.0 140 / 111012.3 26.8
2016-Sep-23 08:52N 33°18' W 077°24'5 5.0 220 / 51011.9 26.9
2016-Sep-23 07:52N 33°18' W 077°30'5 5.0 150 / 111011.9 26.7
2016-Sep-23 06:52N 33°18' W 077°24'5 5.0 200 / 41012.2 26.9
2016-Sep-23 05:52N 33°18' W 077°30'5 5.0 170 / 81012.0 27.3
2016-Sep-23 04:52N 33°18' W 077°24'0 0.0 180 / 71012.3 27.2
2016-Sep-23 03:52N 33°18' W 077°24'0 0.0 140 / 131012.8 27.3
2016-Sep-23 02:52N 33°18' W 077°24'0 0.0 180 / 41012.5 26.8
2016-Sep-23 01:52N 33°18' W 077°24'5 5.1 110 / 171012.3 27.1
2016-Sep-23 00:53N 33°18' W 077°18'0 0.0 140 / 101012.2 27.2
2016-Sep-23 00:00N 33°18' W 077°18'5 4.5 160 / 111014.510.8 0.526.524.4-27.4
2016-Sep-22 22:53N 33°18' W 077°24'0 0.0 110 / 161011.7 27.1
2016-Sep-22 21:53N 33°18' W 077°24'0 0.0 100 / 141011.2 26.8
2016-Sep-22 20:53N 33°18' W 077°24'0 0.0 090 / 161011.4 27.1
2016-Sep-22 19:53N 33°18' W 077°24'5 5.0 100 / 121011.6 26.8
2016-Sep-22 18:53N 33°18' W 077°30'1517.0 120 / 81011.7 27.1
2016-Sep-22 18:00N 33°18' W 077°12'543.0 150 / 81015.210.8 0.527.224.3-25.1
2016-Sep-22 17:53N 33°18' W 077°18'5 5.0 120 / 71012.3 27.4
2016-Sep-22 16:53N 33°18' W 077°24'5 5.0 120 / 101012.6 27.1
2016-Sep-22 15:53N 33°18' W 077°30'0 0.0 110 / 141012.9 27.1
2016-Sep-22 13:54N 33°18' W 077°30'10 5.3 100 / 81012.8 27.1
2016-Sep-22 12:00N 33°18' W 077°18'550.1 100 / 81015.610.8 0.527.024.3-27.7
2016-Sep-22 11:54N 33°18' W 077°24'5 5.0 090 / 71012.6 26.9
2016-Sep-22 10:54N 33°18' W 077°30'1010.0 100 / 121012.2 26.5
2016-Sep-22 09:54N 33°18' W 077°18'1010.0 100 / 121012.0 26.3
2016-Sep-22 08:54N 33°18' W 077°30'1010.0 070 / 51011.4 26.2
2016-Sep-22 07:54N 33°18' W 077°18'1010.0 100 / 101011.7 26.0
2016-Sep-22 06:54N 33°18' W 077°30'5 5.0 120 / 81011.9 26.4
2016-Sep-22 05:54N 33°18' W 077°24'0 0.0 100 / 81012.2 26.3
2016-Sep-22 04:54N 33°18' W 077°24'0 0.0 080 / 31012.4 26.4
2016-Sep-22 03:54N 33°18' W 077°24'0 0.0 130 / 91012.8 26.3
2016-Sep-22 02:55N 33°18' W 077°24'0 0.0 160 / 31012.8 26.4
2016-Sep-22 01:55N 33°18' W 077°24'0 0.0 140 / 101012.7 26.5
2016-Sep-22 00:55N 33°18' W 077°24'5 5.5 150 / 41012.3 26.3
2016-Sep-22 00:00N 33°18' W 077°18'5 4.6 150 / 51014.510.8 0.526.323.1-28.1
2016-Sep-21 22:55N 33°18' W 077°24'5 5.0 150 / 41011.7 26.4
2016-Sep-21 21:55N 33°18' W 077°30'5 5.0 140 / 131011.5 26.4
2016-Sep-21 20:55N 33°18' W 077°24'5 5.0 140 / 41011.3 26.5
2016-Sep-21 19:55N 33°18' W 077°30'5 5.0 130 / 131011.1 26.2
2016-Sep-21 18:55N 33°18' W 077°24'0 0.0 140 / 91011.4 26.3
2016-Sep-21 18:00N 33°18' W 077°24'560.2 230 / 31014.310.8 0.526.2
2016-Sep-21 17:55N 33°18' W 077°30'5 5.0 170 / 51011.7 26.1
2016-Sep-21 16:55N 33°18' W 077°24'5 5.1 220 / 31011.9 26.1
2016-Sep-21 15:56N 33°18' W 077°30'5 5.0 170 / 101012.1 26.0
2016-Sep-21 14:56N 33°18' W 077°24'5 5.0 180 / 111012.2 25.7
2016-Sep-21 13:56N 33°18' W 077°30'5 5.0 270 / 91011.7 25.7
2016-Sep-21 12:56N 33°18' W 077°24'8 8.4 160 / 111011.5 25.6
2016-Sep-21 12:00N 33°24' W 077°18'8117.3 260 / 91014.210.8 0.525.523.4-27.9
2016-Sep-21 11:56N 33°18' W 077°24'5 5.0 260 / 91011.4 25.6
2016-Sep-21 10:56N 33°18' W 077°30'8 7.8 280 / 101011.1 25.4
2016-Sep-21 09:56N 33°24' W 077°24'8 7.8 260 / 91010.6 25.5
2016-Sep-21 08:56N 33°18' W 077°30'8 7.8 200 / 91010.3 25.2
2016-Sep-21 07:56N 33°24' W 077°24'8 7.8 260 / 41010.7 25.3
2016-Sep-21 06:56N 33°18' W 077°30'8 8.0 320 / 101011.1 25.0
2016-Sep-21 05:57N 33°24' W 077°24'8 7.8 290 / 121011.1 25.2
2016-Sep-21 04:57N 33°18' W 077°30'8 7.8 290 / 111011.7 25.1
2016-Sep-21 03:57N 33°24' W 077°24'8 7.8 310 / 111011.3 25.4
2016-Sep-21 02:57N 33°18' W 077°30'8 7.8 320 / 101011.7 25.3
2016-Sep-21 01:57N 33°24' W 077°24'8 7.8 290 / 151011.7 25.1
2016-Sep-21 00:57N 33°18' W 077°30'1212.3 310 / 171011.9 24.9
2016-Sep-21 00:00N 33°24' W 077°18'1211.1 340 / 151014.310.8 0.525.023.6-28.0
2016-Sep-20 22:57N 33°18' W 077°30'8 7.8 310 / 171011.2 25.5
2016-Sep-20 21:57N 33°24' W 077°24'8 7.8 310 / 151011.1 25.0
2016-Sep-20 20:57N 33°18' W 077°30'8 8.0 310 / 181011.4 24.8
2016-Sep-20 19:58N 33°24' W 077°24'8 7.8 320 / 131011.1 24.8
2016-Sep-20 18:58N 33°18' W 077°30'1212.1 310 / 121011.5 25.2
2016-Sep-20 18:00N 33°24' W 077°18'5150.3 330 / 131014.410.8 25.3 -28.0
2016-Sep-20 17:58N 33°24' W 077°24'8 7.8 310 / 111011.5 25.2
2016-Sep-20 16:58N 33°18' W 077°30'8 7.8 300 / 191011.7 25.3
2016-Sep-20 15:58N 33°24' W 077°24'8 7.8 320 / 91012.2 25.7
2016-Sep-20 14:58N 33°18' W 077°30'8 7.8 300 / 121012.5 25.4
2016-Sep-20 13:58N 33°24' W 077°24'8 7.8 310 / 101012.2 25.5
2016-Sep-20 12:58N 33°18' W 077°30'1212.1 300 / 141011.9 25.2
2016-Sep-20 12:00N 33°24' W 077°18'5150.3 310 / 91014.210.8 0.525.022.9-28.0
2016-Sep-20 11:58N 33°24' W 077°24'0 0.0 290 / 101011.7 25.4
2016-Sep-20 10:58N 33°24' W 077°24'5 5.0 280 / 121011.3 25.2
2016-Sep-20 09:58N 33°24' W 077°30'0 0.0 300 / 81011.3 25.2
2016-Sep-20 08:58N 33°24' W 077°30'5 5.1 300 / 131010.8 24.9
2016-Sep-20 07:59N 33°24' W 077°24'8 7.8 300 / 121010.2 24.6
2016-Sep-20 06:59N 33°18' W 077°30'8 7.8 290 / 161010.5 24.6
2016-Sep-20 05:59N 33°24' W 077°24'8 7.8 300 / 161010.7 25.0
2016-Sep-20 04:59N 33°18' W 077°30'1010.0 290 / 141011.0 25.6
2016-Sep-20 03:59N 33°18' W 077°42'1211.7 300 / 151011.3 25.4
2016-Sep-20 02:59N 33°12' W 077°54'1211.7 320 / 121011.6 25.6
2016-Sep-20 01:59N 33°06' W 078°06'1010.1 330 / 181011.4 25.9
2016-Sep-20 00:59N 33°06' W 078°18'1211.9 310 / 191010.8 26.2
2016-Sep-20 00:00N 33°00' W 078°30'1616.0 330 / 141012.310.8 0.526.023.9-28.3
2016-Sep-19 22:59N 32°54' W 078°48'1211.9 320 / 221010.5 25.5
2016-Sep-19 22:00N 32°48' W 079°00'1211.7 290 / 141009.4 28.2
2016-Sep-19 21:00N 32°42' W 079°12'1010.1 240 / 121009.1 28.5
2016-Sep-19 20:00N 32°42' W 079°24'   230 / 101008.9 28.2
2016-Sep-16 11:45N 32°48' W 079°54'6 6.0 360 / 141016.9 22.3
2016-Sep-16 10:45N 32°42' W 079°54'5 5.0 010 / 151015.8 22.4
2016-Sep-16 09:45N 32°42' W 079°48'0 0.0 350 / 101015.2 22.5
2016-Sep-16 08:45N 32°42' W 079°48'0 0.0 340 / 121015.3 22.8
2016-Sep-16 07:45N 32°42' W 079°48'0 0.0 340 / 121015.2 23.4
2016-Sep-16 06:45N 32°42' W 079°48'0 0.0 010 / 111015.3 23.6
2016-Sep-16 05:45N 32°42' W 079°48'5 5.1 360 / 101015.5 23.7
2016-Sep-16 04:46N 32°42' W 079°42'5 2.5 360 / 131015.2 24.8
2016-Sep-16 02:46N 32°42' W 079°36'   340 / 221015.0 26.2
Track history (hours):
 
Tides and Currents Weather Stations Pressure Air Temp Water Temp Dewpoint Dewpoint Depression Visibility Wind Speed Wind Dir Waves Ship Positions

Oceanographic research ship Hassler (USA)

Last reported at 2016-Sep-26 02:46 UTC. Time now 2016-Sep-26 03:42 UTC.
Position N 33°18' W 077°30'.

Length 37 m; draft 3.8 m.

Type: . MMSI: 369970091.

Wind from 040 at 25 knots

Barometer 1016.5 mb
Air temperature 25.8 ° C

Date/timePositionNaut miles runAvg speedWind from/ knotsBaromVisibWave heightAir tempDewpointWater temp
2016-Sep-26 02:46N 33°18' W 077°30'8 7.8 040 / 251016.5 25.8
2016-Sep-26 01:46N 33°12' W 077°24'6 6.0 040 / 201016.4 26.0
2016-Sep-26 00:46N 33°18' W 077°24'5 6.5 030 / 251016.5 25.9
2016-Sep-26 00:00N 33°18' W 077°18'0 0.0 060 / 161018.810.8 1.026.021.4-28.1
2016-Sep-25 22:46N 33°18' W 077°18'5 5.1 020 / 241015.0 26.2
2016-Sep-25 21:47N 33°18' W 077°24'8 7.8 020 / 211014.9 26.6
2016-Sep-25 20:47N 33°24' W 077°30'0 0.0 020 / 251014.6 26.4
2016-Sep-25 19:47N 33°24' W 077°30'0 0.0 030 / 231014.8 26.8
2016-Sep-25 18:47N 33°24' W 077°30'0 0.0 050 / 131015.1 26.8
2016-Sep-25 17:47N 33°24' W 077°30'0 0.0 050 / 161015.5 26.7
2016-Sep-25 16:47N 33°24' W 077°30'0 0.0 050 / 141016.0 27.0
2016-Sep-25 15:47N 33°24' W 077°30'6 6.0 030 / 201016.3 27.2
2016-Sep-25 14:47N 33°18' W 077°30'0 0.0 030 / 171016.3 27.2
2016-Sep-25 13:47N 33°18' W 077°30'1010.0 040 / 171015.8 27.3
2016-Sep-25 12:47N 33°18' W 077°18'0 0.0 040 / 181015.6 27.5
2016-Sep-25 12:00N 33°18' W 077°18'523.1 070 / 101018.010.8 0.527.022.8-28.0
2016-Sep-25 11:47N 33°18' W 077°24'8 8.0 050 / 121015.1 27.4
2016-Sep-25 10:48N 33°12' W 077°18'0 0.0 010 / 161014.5 27.3
2016-Sep-25 09:48N 33°12' W 077°18'5 5.0 070 / 131014.5 27.8
2016-Sep-25 08:48N 33°12' W 077°24'5 5.0 050 / 131013.9 27.5
2016-Sep-25 07:48N 33°12' W 077°18'6 6.0 030 / 141013.4 27.4
2016-Sep-25 06:48N 33°18' W 077°18'6 6.0 060 / 131013.9 27.5
2016-Sep-25 05:48N 33°12' W 077°18'5 5.0 070 / 121014.2 27.2
2016-Sep-25 04:48N 33°12' W 077°24'8 7.8 050 / 121014.2 26.9
2016-Sep-25 03:48N 33°18' W 077°18'0 0.0 010 / 131014.4 27.0
2016-Sep-25 02:49N 33°18' W 077°18'8 7.8 060 / 91014.6 26.9
2016-Sep-25 01:49N 33°12' W 077°24'8 7.8 060 / 121014.6 27.2
2016-Sep-25 00:49N 33°18' W 077°18'6 7.3 350 / 161014.0 26.8
2016-Sep-25 00:00N 33°12' W 077°18'8 6.6 050 / 121016.510.8 0.526.022.5-28.1
2016-Sep-24 22:49N 33°18' W 077°24'5 5.0 340 / 161013.2 27.0
2016-Sep-24 21:49N 33°18' W 077°18'8 7.8 030 / 91013.1 27.3
2016-Sep-24 20:49N 33°12' W 077°24'8 7.8 340 / 161012.9 27.0
2016-Sep-24 19:49N 33°18' W 077°18'8 8.0 340 / 151012.9 27.1
2016-Sep-24 18:50N 33°12' W 077°24'8 7.8 040 / 91013.3 27.0
2016-Sep-24 17:50N 33°18' W 077°18'8 7.8 340 / 181013.7 26.9
2016-Sep-24 16:50N 33°12' W 077°24'8 7.8 020 / 121014.3 26.8
2016-Sep-24 15:50N 33°18' W 077°18'8 7.8 340 / 171014.3 27.0
2016-Sep-24 14:50N 33°12' W 077°24'6 6.0 040 / 111014.3 26.8
2016-Sep-24 13:50N 33°18' W 077°24'0 0.0 350 / 181013.9 26.2
2016-Sep-24 12:50N 33°18' W 077°24'1012.0 020 / 61013.9 26.8
2016-Sep-24 12:00N 33°18' W 077°12'530.1 360 / 71016.510.8 27.024.3-28.5
2016-Sep-24 11:50N 33°18' W 077°18'8 7.8 350 / 41013.3 27.0
2016-Sep-24 10:50N 33°12' W 077°24'6 6.0 360 / 51012.8 26.5
2016-Sep-24 09:50N 33°18' W 077°24'0 0.0 320 / 101012.6 26.5
2016-Sep-24 08:51N 33°18' W 077°24'5 5.0 050 / 41012.4 26.3
2016-Sep-24 07:51N 33°18' W 077°18'1211.7 310 / 91012.0 26.3
2016-Sep-24 06:51N 33°12' W 077°30'1211.7 270 / 71012.4 26.3
2016-Sep-24 05:51N 33°18' W 077°18'5 5.0 220 / 111012.3 25.4
2016-Sep-24 04:51N 33°18' W 077°24'0 0.0 310 / 121012.9 25.6
2016-Sep-24 03:51N 33°18' W 077°24'0 0.0 280 / 41012.9 26.6
2016-Sep-24 02:51N 33°18' W 077°24'0 0.0 240 / 31012.9 25.7
2016-Sep-24 01:51N 33°18' W 077°24'5 4.9 170 / 91012.3 26.8
2016-Sep-24 00:50N 33°18' W 077°18'0 0.0 280 / 61012.1 26.7
2016-Sep-24 00:00N 33°18' W 077°18'0 0.0 240 / 41015.010.8 26.823.6-28.8
2016-Sep-23 22:51N 33°18' W 077°18'5 5.0 170 / 111011.7 26.8
2016-Sep-23 21:51N 33°18' W 077°24'0 0.0 260 / 51011.7 27.0
2016-Sep-23 20:51N 33°18' W 077°24'0 0.0 170 / 101011.4 27.1
2016-Sep-23 19:51N 33°18' W 077°24'0 0.0 210 / 71011.1 27.1
2016-Sep-23 18:51N 33°18' W 077°24'0 0.0 160 / 111011.4 27.0
2016-Sep-23 17:51N 33°18' W 077°24'5 5.0 180 / 71012.3 27.1
2016-Sep-23 16:51N 33°18' W 077°30'1010.0 150 / 131012.8 26.9
2016-Sep-23 15:51N 33°18' W 077°18'1010.0 180 / 71013.1 27.1
2016-Sep-23 14:51N 33°18' W 077°30'1010.0 150 / 121013.3 26.8
2016-Sep-23 13:51N 33°18' W 077°18'5 5.1 120 / 51013.6 27.2
2016-Sep-23 12:52N 33°18' W 077°24'5 5.8 190 / 31013.1 27.4
2016-Sep-23 12:00N 33°18' W 077°18'537.6 210 / 21016.010.8 0.526.023.9-27.6
2016-Sep-23 11:52N 33°18' W 077°24'0 0.0 150 / 101013.0 27.2
2016-Sep-23 10:52N 33°18' W 077°24'0 0.0 180 / 21012.5 26.9
2016-Sep-23 09:52N 33°18' W 077°24'0 0.0 140 / 111012.3 26.8
2016-Sep-23 08:52N 33°18' W 077°24'5 5.0 220 / 51011.9 26.9
2016-Sep-23 07:52N 33°18' W 077°30'5 5.0 150 / 111011.9 26.7
2016-Sep-23 06:52N 33°18' W 077°24'5 5.0 200 / 41012.2 26.9
2016-Sep-23 05:52N 33°18' W 077°30'5 5.0 170 / 81012.0 27.3
2016-Sep-23 04:52N 33°18' W 077°24'0 0.0 180 / 71012.3 27.2
2016-Sep-23 03:52N 33°18' W 077°24'0 0.0 140 / 131012.8 27.3
2016-Sep-23 02:52N 33°18' W 077°24'0 0.0 180 / 41012.5 26.8
2016-Sep-23 01:52N 33°18' W 077°24'5 5.1 110 / 171012.3 27.1
2016-Sep-23 00:53N 33°18' W 077°18'0 0.0 140 / 101012.2 27.2
2016-Sep-23 00:00N 33°18' W 077°18'5 4.5 160 / 111014.510.8 0.526.524.4-27.4
2016-Sep-22 22:53N 33°18' W 077°24'0 0.0 110 / 161011.7 27.1
2016-Sep-22 21:53N 33°18' W 077°24'0 0.0 100 / 141011.2 26.8
2016-Sep-22 20:53N 33°18' W 077°24'0 0.0 090 / 161011.4 27.1
2016-Sep-22 19:53N 33°18' W 077°24'5 5.0 100 / 121011.6 26.8
2016-Sep-22 18:53N 33°18' W 077°30'1517.0 120 / 81011.7 27.1
2016-Sep-22 18:00N 33°18' W 077°12'543.0 150 / 81015.210.8 0.527.224.3-25.1
2016-Sep-22 17:53N 33°18' W 077°18'5 5.0 120 / 71012.3 27.4
2016-Sep-22 16:53N 33°18' W 077°24'5 5.0 120 / 101012.6 27.1
2016-Sep-22 15:53N 33°18' W 077°30'0 0.0 110 / 141012.9 27.1
2016-Sep-22 13:54N 33°18' W 077°30'10 5.3 100 / 81012.8 27.1
2016-Sep-22 12:00N 33°18' W 077°18'550.1 100 / 81015.610.8 0.527.024.3-27.7
2016-Sep-22 11:54N 33°18' W 077°24'5 5.0 090 / 71012.6 26.9
2016-Sep-22 10:54N 33°18' W 077°30'1010.0 100 / 121012.2 26.5
2016-Sep-22 09:54N 33°18' W 077°18'1010.0 100 / 121012.0 26.3
2016-Sep-22 08:54N 33°18' W 077°30'1010.0 070 / 51011.4 26.2
2016-Sep-22 07:54N 33°18' W 077°18'1010.0 100 / 101011.7 26.0
2016-Sep-22 06:54N 33°18' W 077°30'5 5.0 120 / 81011.9 26.4
2016-Sep-22 05:54N 33°18' W 077°24'0 0.0 100 / 81012.2 26.3
2016-Sep-22 04:54N 33°18' W 077°24'0 0.0 080 / 31012.4 26.4
2016-Sep-22 03:54N 33°18' W 077°24'0 0.0 130 / 91012.8 26.3
2016-Sep-22 02:55N 33°18' W 077°24'0 0.0 160 / 31012.8 26.4
2016-Sep-22 01:55N 33°18' W 077°24'0 0.0 140 / 101012.7 26.5
2016-Sep-22 00:55N 33°18' W 077°24'5 5.5 150 / 41012.3 26.3
2016-Sep-22 00:00N 33°18' W 077°18'5 4.6 150 / 51014.510.8 0.526.323.1-28.1
2016-Sep-21 22:55N 33°18' W 077°24'5 5.0 150 / 41011.7 26.4
2016-Sep-21 21:55N 33°18' W 077°30'5 5.0 140 / 131011.5 26.4
2016-Sep-21 20:55N 33°18' W 077°24'5 5.0 140 / 41011.3 26.5
2016-Sep-21 19:55N 33°18' W 077°30'5 5.0 130 / 131011.1 26.2
2016-Sep-21 18:55N 33°18' W 077°24'0 0.0 140 / 91011.4 26.3
2016-Sep-21 18:00N 33°18' W 077°24'560.2 230 / 31014.310.8 0.526.2
2016-Sep-21 17:55N 33°18' W 077°30'5 5.0 170 / 51011.7 26.1
2016-Sep-21 16:55N 33°18' W 077°24'5 5.1 220 / 31011.9 26.1
2016-Sep-21 15:56N 33°18' W 077°30'5 5.0 170 / 101012.1 26.0
2016-Sep-21 14:56N 33°18' W 077°24'5 5.0 180 / 111012.2 25.7
2016-Sep-21 13:56N 33°18' W 077°30'5 5.0 270 / 91011.7 25.7
2016-Sep-21 12:56N 33°18' W 077°24'8 8.4 160 / 111011.5 25.6
2016-Sep-21 12:00N 33°24' W 077°18'8117.3 260 / 91014.210.8 0.525.523.4-27.9
2016-Sep-21 11:56N 33°18' W 077°24'5 5.0 260 / 91011.4 25.6
2016-Sep-21 10:56N 33°18' W 077°30'8 7.8 280 / 101011.1 25.4
2016-Sep-21 09:56N 33°24' W 077°24'8 7.8 260 / 91010.6 25.5
2016-Sep-21 08:56N 33°18' W 077°30'8 7.8 200 / 91010.3 25.2
2016-Sep-21 07:56N 33°24' W 077°24'8 7.8 260 / 41010.7 25.3
2016-Sep-21 06:56N 33°18' W 077°30'8 8.0 320 / 101011.1 25.0
2016-Sep-21 05:57N 33°24' W 077°24'8 7.8 290 / 121011.1 25.2
2016-Sep-21 04:57N 33°18' W 077°30'8 7.8 290 / 111011.7 25.1
2016-Sep-21 03:57N 33°24' W 077°24'8 7.8 310 / 111011.3 25.4
2016-Sep-21 02:57N 33°18' W 077°30'8 7.8 320 / 101011.7 25.3
2016-Sep-21 01:57N 33°24' W 077°24'8 7.8 290 / 151011.7 25.1
2016-Sep-21 00:57N 33°18' W 077°30'1212.3 310 / 171011.9 24.9
2016-Sep-21 00:00N 33°24' W 077°18'1211.1 340 / 151014.310.8 0.525.023.6-28.0
2016-Sep-20 22:57N 33°18' W 077°30'8 7.8 310 / 171011.2 25.5
2016-Sep-20 21:57N 33°24' W 077°24'8 7.8 310 / 151011.1 25.0
2016-Sep-20 20:57N 33°18' W 077°30'8 8.0 310 / 181011.4 24.8
2016-Sep-20 19:58N 33°24' W 077°24'8 7.8 320 / 131011.1 24.8
2016-Sep-20 18:58N 33°18' W 077°30'1212.1 310 / 121011.5 25.2
2016-Sep-20 18:00N 33°24' W 077°18'5150.3 330 / 131014.410.8 25.3 -28.0
2016-Sep-20 17:58N 33°24' W 077°24'8 7.8 310 / 111011.5 25.2
2016-Sep-20 16:58N 33°18' W 077°30'8 7.8 300 / 191011.7 25.3
2016-Sep-20 15:58N 33°24' W 077°24'8 7.8 320 / 91012.2 25.7
2016-Sep-20 14:58N 33°18' W 077°30'8 7.8 300 / 121012.5 25.4
2016-Sep-20 13:58N 33°24' W 077°24'8 7.8 310 / 101012.2 25.5
2016-Sep-20 12:58N 33°18' W 077°30'1212.1 300 / 141011.9 25.2
2016-Sep-20 12:00N 33°24' W 077°18'5150.3 310 / 91014.210.8 0.525.022.9-28.0
2016-Sep-20 11:58N 33°24' W 077°24'0 0.0 290 / 101011.7 25.4
2016-Sep-20 10:58N 33°24' W 077°24'5 5.0 280 / 121011.3 25.2
2016-Sep-20 09:58N 33°24' W 077°30'0 0.0 300 / 81011.3 25.2
2016-Sep-20 08:58N 33°24' W 077°30'5 5.1 300 / 131010.8 24.9
2016-Sep-20 07:59N 33°24' W 077°24'8 7.8 300 / 121010.2 24.6
2016-Sep-20 06:59N 33°18' W 077°30'8 7.8 290 / 161010.5 24.6
2016-Sep-20 05:59N 33°24' W 077°24'8 7.8 300 / 161010.7 25.0
2016-Sep-20 04:59N 33°18' W 077°30'1010.0 290 / 141011.0 25.6
2016-Sep-20 03:59N 33°18' W 077°42'1211.7 300 / 151011.3 25.4
2016-Sep-20 02:59N 33°12' W 077°54'1211.7 320 / 121011.6 25.6
2016-Sep-20 01:59N 33°06' W 078°06'1010.1 330 / 181011.4 25.9
2016-Sep-20 00:59N 33°06' W 078°18'1211.9 310 / 191010.8 26.2
2016-Sep-20 00:00N 33°00' W 078°30'1616.0 330 / 141012.310.8 0.526.023.9-28.3
2016-Sep-19 22:59N 32°54' W 078°48'1211.9 320 / 221010.5 25.5
2016-Sep-19 22:00N 32°48' W 079°00'1211.7 290 / 141009.4 28.2
2016-Sep-19 21:00N 32°42' W 079°12'1010.1 240 / 121009.1 28.5
2016-Sep-19 20:00N 32°42' W 079°24'   230 / 101008.9 28.2
2016-Sep-16 11:45N 32°48' W 079°54'6 6.0 360 / 141016.9 22.3
2016-Sep-16 10:45N 32°42' W 079°54'5 5.0 010 / 151015.8 22.4
2016-Sep-16 09:45N 32°42' W 079°48'0 0.0 350 / 101015.2 22.5
2016-Sep-16 08:45N 32°42' W 079°48'0 0.0 340 / 121015.3 22.8
2016-Sep-16 07:45N 32°42' W 079°48'0 0.0 340 / 121015.2 23.4
2016-Sep-16 06:45N 32°42' W 079°48'0 0.0 010 / 111015.3 23.6
2016-Sep-16 05:45N 32°42' W 079°48'5 5.1 360 / 101015.5 23.7
2016-Sep-16 04:46N 32°42' W 079°42'5 2.5 360 / 131015.2 24.8
2016-Sep-16 02:46N 32°42' W 079°36'   340 / 221015.0 26.2

Dump ship's entire track history